createdAt,value
2022-09-13T00:01:16.102Z,24.21
2022-09-13T00:03:44.071Z,24.21
2022-09-13T00:06:13.790Z,24.21
2022-09-13T00:08:42.136Z,24.19
2022-09-13T00:11:15.865Z,24.18
2022-09-13T00:13:45.205Z,24.19
2022-09-13T00:16:13.611Z,24.18
2022-09-13T00:18:41.787Z,24.18
2022-09-13T00:21:11.498Z,24.18
2022-09-13T00:23:39.372Z,24.19
2022-09-13T00:26:08.088Z,24.19
2022-09-13T00:28:36.155Z,24.18
2022-09-13T00:31:06.909Z,24.18
2022-09-13T00:33:34.841Z,24.19
2022-09-13T00:36:05.524Z,24.18
2022-09-13T00:38:33.451Z,24.19
2022-09-13T00:41:01.402Z,24.18
2022-09-13T00:43:46.871Z,24.17
2022-09-13T00:46:25.176Z,24.16
2022-09-13T00:48:54.467Z,24.17
2022-09-13T00:51:22.365Z,24.16
2022-09-13T00:53:51.578Z,24.15
2022-09-13T00:56:21.017Z,24.14
2022-09-13T00:58:50.248Z,24.13
2022-09-13T01:01:19.640Z,24.13
2022-09-13T01:03:47.668Z,24.13
2022-09-13T01:06:16.644Z,24.13
2022-09-13T01:08:45.805Z,24.11
2022-09-13T01:11:17.098Z,24.10
2022-09-13T01:13:45.683Z,24.09
2022-09-13T01:16:13.686Z,24.09
2022-09-13T01:18:43.047Z,24.10
2022-09-13T01:21:33.030Z,24.08
2022-09-13T01:24:12.694Z,24.09
2022-09-13T01:26:52.718Z,24.09
2022-09-13T01:29:53.959Z,24.09
2022-09-13T01:32:25.926Z,24.09
2022-09-13T01:34:58.779Z,24.08
2022-09-13T01:37:34.047Z,24.09
2022-09-13T01:40:06.098Z,24.09
2022-09-13T01:42:48.142Z,24.08
2022-09-13T01:45:23.010Z,24.08
2022-09-13T01:47:53.971Z,24.08
2022-09-13T01:50:23.956Z,24.07
2022-09-13T01:52:55.236Z,24.06
2022-09-13T01:55:30.480Z,24.05
2022-09-13T01:58:02.668Z,24.05
2022-09-13T02:00:30.613Z,24.03
2022-09-13T02:03:04.295Z,24.03
2022-09-13T02:05:33.592Z,24.02
2022-09-13T02:08:03.480Z,24.01
2022-09-13T02:10:33.484Z,24.01
2022-09-13T02:13:01.446Z,24.00
2022-09-13T02:15:30.809Z,24.00
2022-09-13T02:18:03.119Z,24.00
2022-09-13T02:20:33.107Z,23.98
2022-09-13T02:23:14.121Z,23.97
2022-09-13T02:25:42.186Z,23.98
2022-09-13T02:28:12.296Z,23.98
2022-09-13T02:30:41.990Z,23.98
2022-09-13T02:33:12.906Z,23.99
2022-09-13T02:35:42.265Z,23.99
2022-09-13T02:38:12.357Z,23.99
2022-09-13T02:40:41.331Z,23.99
2022-09-13T02:43:11.733Z,23.99
2022-09-13T02:45:43.377Z,23.99
2022-09-13T02:48:16.542Z,23.99
2022-09-13T02:50:48.028Z,23.98
2022-09-13T02:53:17.833Z,23.98
2022-09-13T02:55:47.954Z,23.97
2022-09-13T02:58:24.854Z,23.97
2022-09-13T03:00:55.000Z,23.96
2022-09-13T03:03:24.358Z,23.95
2022-09-13T03:05:52.202Z,23.94
2022-09-13T03:08:20.174Z,23.94
2022-09-13T03:10:52.779Z,23.94
2022-09-13T03:13:39.621Z,23.92
2022-09-13T03:16:15.969Z,23.90
2022-09-13T03:18:54.731Z,23.92
2022-09-13T03:21:36.160Z,23.91
2022-09-13T03:24:09.244Z,23.90
2022-09-13T03:26:42.616Z,23.88
2022-09-13T03:29:25.296Z,23.88
2022-09-13T03:31:56.093Z,23.87
2022-09-13T03:34:31.846Z,23.89
2022-09-13T03:37:00.924Z,23.89
2022-09-13T03:39:34.142Z,23.88
2022-09-13T03:42:03.384Z,23.89
2022-09-13T03:44:31.285Z,23.88
2022-09-13T03:46:59.990Z,23.90
2022-09-13T03:49:29.287Z,23.90
2022-09-13T03:51:58.125Z,23.89
2022-09-13T03:54:27.089Z,23.89
2022-09-13T03:57:11.046Z,23.89
2022-09-13T03:59:39.222Z,23.87
2022-09-13T04:02:08.804Z,23.87
2022-09-13T04:04:38.462Z,23.86
2022-09-13T04:07:06.642Z,23.85
2022-09-13T04:09:34.606Z,23.85
2022-09-13T04:12:02.915Z,23.84
2022-09-13T04:14:31.006Z,23.84
2022-09-13T04:16:59.185Z,23.84
2022-09-13T04:19:27.085Z,23.81
2022-09-13T04:21:56.522Z,23.83
2022-09-13T04:24:26.208Z,23.81
2022-09-13T04:26:54.515Z,23.81
2022-09-13T04:29:22.960Z,23.80
2022-09-13T04:31:52.620Z,23.79
2022-09-13T04:34:22.360Z,23.79
2022-09-13T04:36:50.666Z,23.79
2022-09-13T04:39:20.088Z,23.81
2022-09-13T04:41:48.864Z,23.81
2022-09-13T04:44:17.709Z,23.81
2022-09-13T04:46:48.201Z,23.81
2022-09-13T04:49:16.279Z,23.82
2022-09-13T04:51:44.232Z,23.82
2022-09-13T04:54:15.527Z,23.83
2022-09-13T04:56:45.529Z,23.84
2022-09-13T04:59:13.784Z,23.84
2022-09-13T05:01:41.849Z,23.84
2022-09-13T05:04:10.407Z,23.84
2022-09-13T05:06:38.379Z,23.83
2022-09-13T05:09:06.460Z,23.82
2022-09-13T05:11:34.532Z,23.82
2022-09-13T05:14:04.096Z,23.82
2022-09-13T05:16:33.667Z,23.81
2022-09-13T05:19:01.719Z,23.82
2022-09-13T05:21:29.829Z,23.81
2022-09-13T05:23:57.937Z,23.80
2022-09-13T05:26:26.744Z,23.81
2022-09-13T05:28:54.681Z,23.78
2022-09-13T05:31:26.005Z,23.80
2022-09-13T05:33:55.151Z,23.82
2022-09-13T05:36:23.102Z,23.82
2022-09-13T05:39:06.510Z,23.83
2022-09-13T05:41:38.946Z,23.84
2022-09-13T05:44:12.918Z,23.86
2022-09-13T05:46:43.480Z,23.86
2022-09-13T05:49:14.081Z,23.87
2022-09-13T05:51:41.995Z,23.88
2022-09-13T05:54:12.214Z,23.89
2022-09-13T05:56:40.324Z,23.89
2022-09-13T05:59:09.019Z,23.90
2022-09-13T06:01:37.018Z,23.90
2022-09-13T06:04:06.437Z,23.90
2022-09-13T06:06:35.270Z,23.91
2022-09-13T06:09:03.470Z,23.90
2022-09-13T06:11:31.407Z,23.92
2022-09-13T06:13:59.320Z,23.92
2022-09-13T06:16:27.343Z,23.90
2022-09-13T06:18:55.310Z,23.92
2022-09-13T06:21:28.403Z,23.91
2022-09-13T06:23:57.118Z,23.92
2022-09-13T06:26:25.657Z,23.92
2022-09-13T06:28:54.937Z,23.92
2022-09-13T06:31:24.935Z,23.92
2022-09-13T06:33:57.474Z,23.92
2022-09-13T06:36:26.803Z,23.92
2022-09-13T06:38:54.726Z,23.92
2022-09-13T06:41:23.397Z,23.94
2022-09-13T06:43:54.008Z,23.95
2022-09-13T06:46:25.258Z,23.95
2022-09-13T06:48:53.403Z,23.96
2022-09-13T06:51:22.562Z,23.96
2022-09-13T06:53:52.037Z,23.97
2022-09-13T06:56:21.045Z,23.98
2022-09-13T06:58:49.770Z,23.99
2022-09-13T07:01:18.601Z,23.99
2022-09-13T07:03:47.464Z,23.99
2022-09-13T07:06:21.514Z,23.99
2022-09-13T07:08:52.631Z,24.00
2022-09-13T07:11:21.495Z,24.00
2022-09-13T07:13:50.403Z,24.00
2022-09-13T07:16:18.685Z,24.00
2022-09-13T07:18:46.995Z,24.00
2022-09-13T07:21:16.286Z,24.01
2022-09-13T07:23:44.170Z,24.02
2022-09-13T07:26:13.504Z,24.00
2022-09-13T07:28:42.628Z,24.01
2022-09-13T07:31:11.424Z,24.03
2022-09-13T07:33:39.624Z,24.02
2022-09-13T07:36:07.668Z,24.02
2022-09-13T07:38:36.050Z,24.03
2022-09-13T07:41:06.557Z,24.03
2022-09-13T07:43:35.966Z,24.05
2022-09-13T07:46:04.914Z,24.05
2022-09-13T07:48:34.035Z,24.06
2022-09-13T07:51:02.658Z,24.06
2022-09-13T07:53:30.782Z,24.07
2022-09-13T07:56:03.523Z,24.08
2022-09-13T07:58:31.470Z,24.09
2022-09-13T08:01:05.300Z,24.09
2022-09-13T08:03:33.755Z,24.09
2022-09-13T08:06:02.072Z,24.09
2022-09-13T08:08:30.035Z,24.10
2022-09-13T08:10:57.950Z,24.11
2022-09-13T08:13:25.885Z,24.10
2022-09-13T08:15:53.908Z,24.10
2022-09-13T08:18:23.304Z,24.11
2022-09-13T08:20:51.292Z,24.12
2022-09-13T08:23:19.300Z,24.12
2022-09-13T08:25:47.206Z,24.11
2022-09-13T08:28:16.328Z,24.12
2022-09-13T08:30:44.762Z,24.12
2022-09-13T08:33:12.891Z,24.13
2022-09-13T08:35:42.243Z,24.13
2022-09-13T08:38:10.164Z,24.13
2022-09-13T08:40:41.389Z,24.13
2022-09-13T08:43:13.370Z,24.14
2022-09-13T08:45:44.132Z,24.15
2022-09-13T08:48:13.798Z,24.16
2022-09-13T08:50:45.090Z,24.17
2022-09-13T08:53:21.111Z,24.16
2022-09-13T08:55:52.634Z,24.17
2022-09-13T08:58:31.684Z,24.18
2022-09-13T09:01:02.389Z,24.17
2022-09-13T09:03:32.841Z,24.18
2022-09-13T09:06:02.148Z,24.20
2022-09-13T09:08:33.986Z,24.19
2022-09-13T09:11:03.956Z,24.19
2022-09-13T09:13:33.270Z,24.20
2022-09-13T09:16:02.889Z,24.20
2022-09-13T09:18:32.375Z,24.19
2022-09-13T09:21:03.498Z,24.21
2022-09-13T09:23:32.759Z,24.21
2022-09-13T09:26:12.598Z,24.21
2022-09-13T09:28:40.605Z,24.22
2022-09-13T09:31:12.544Z,24.22
2022-09-13T09:33:53.079Z,24.22
2022-09-13T09:36:26.604Z,24.22
2022-09-13T09:38:56.139Z,24.22
2022-09-13T09:41:27.450Z,24.24
2022-09-13T09:43:58.178Z,24.23
2022-09-13T09:46:29.092Z,24.24
2022-09-13T09:48:58.477Z,24.23
2022-09-13T09:51:27.758Z,24.25
2022-09-13T09:54:00.045Z,24.25
2022-09-13T09:56:30.112Z,24.25
2022-09-13T09:58:58.004Z,24.25
2022-09-13T10:01:26.876Z,24.25
2022-09-13T10:03:59.636Z,24.26
2022-09-13T10:06:30.204Z,24.26
2022-09-13T10:09:01.144Z,24.25
2022-09-13T10:11:46.303Z,24.26
2022-09-13T10:14:40.095Z,24.24
2022-09-13T10:17:17.104Z,24.25
2022-09-13T10:19:54.251Z,24.24
2022-09-13T10:22:25.279Z,24.25
2022-09-13T10:24:53.656Z,24.26
2022-09-13T10:27:27.211Z,24.25
2022-09-13T10:29:59.675Z,24.24
2022-09-13T10:32:29.272Z,24.26
2022-09-13T10:34:57.310Z,24.26
2022-09-13T10:37:30.872Z,24.25
2022-09-13T10:40:02.563Z,24.24
2022-09-13T10:42:31.204Z,24.25
2022-09-13T10:45:01.070Z,24.26
2022-09-13T10:47:31.458Z,24.27
2022-09-13T10:49:59.443Z,24.27
2022-09-13T10:52:33.535Z,24.27
2022-09-13T10:55:34.700Z,24.29
2022-09-13T10:58:29.129Z,24.28
2022-09-13T11:01:30.319Z,24.28
2022-09-13T11:04:28.976Z,24.30
2022-09-13T11:07:02.070Z,24.29
2022-09-13T11:09:34.018Z,24.29
2022-09-13T11:12:05.348Z,24.30
2022-09-13T11:14:41.287Z,24.31
2022-09-13T11:17:15.873Z,24.29
2022-09-13T11:20:01.836Z,24.29
2022-09-13T11:22:39.813Z,24.28
2022-09-13T11:25:30.336Z,24.28
2022-09-13T11:28:01.776Z,24.28
2022-09-13T11:30:30.229Z,24.28
2022-09-13T11:33:20.554Z,24.28
2022-09-13T11:35:51.828Z,24.29
2022-09-13T11:38:34.622Z,24.28
2022-09-13T11:41:09.312Z,24.28
2022-09-13T11:43:49.637Z,24.28
2022-09-13T11:46:21.663Z,24.28
2022-09-13T11:49:22.918Z,24.30
2022-09-13T11:51:54.364Z,24.29
2022-09-13T11:54:32.509Z,24.30
2022-09-13T11:57:03.547Z,24.30
2022-09-13T11:59:38.158Z,24.31
2022-09-13T12:02:10.746Z,24.31
2022-09-13T12:04:40.066Z,24.30
2022-09-13T12:07:11.325Z,24.31
2022-09-13T12:09:41.564Z,24.32
2022-09-13T12:12:12.109Z,24.32
2022-09-13T12:14:43.984Z,24.32
2022-09-13T12:17:16.865Z,24.31
2022-09-13T12:19:47.886Z,24.32
2022-09-13T12:22:15.824Z,24.32
2022-09-13T12:24:44.918Z,24.31
2022-09-13T12:27:17.707Z,24.32
2022-09-13T12:29:46.721Z,24.31
2022-09-13T12:32:14.673Z,24.32
2022-09-13T12:34:44.130Z,24.32
2022-09-13T12:37:20.700Z,24.32
2022-09-13T12:40:16.512Z,24.32
2022-09-13T12:43:04.331Z,24.31
2022-09-13T12:45:38.428Z,24.32
2022-09-13T12:48:17.029Z,24.32
2022-09-13T12:50:53.354Z,24.32
2022-09-13T12:53:36.105Z,24.34
2022-09-13T12:56:10.612Z,24.34
2022-09-13T12:58:43.395Z,24.34
2022-09-13T13:01:12.174Z,24.35
2022-09-13T13:03:46.150Z,24.35
2022-09-13T13:06:23.142Z,24.35
2022-09-13T13:08:52.483Z,24.35
2022-09-13T13:11:22.343Z,24.38
2022-09-13T13:13:57.139Z,24.38
2022-09-13T13:16:29.681Z,24.39
2022-09-13T13:18:58.424Z,24.36
2022-09-13T13:21:32.285Z,24.37
2022-09-13T13:24:37.941Z,24.39
2022-09-13T13:27:20.442Z,24.36
2022-09-13T13:29:52.383Z,24.38
2022-09-13T13:32:20.308Z,24.37
2022-09-13T13:34:48.996Z,24.36
2022-09-13T13:37:34.800Z,24.38
2022-09-13T13:40:25.325Z,24.38
2022-09-13T13:43:17.776Z,24.38
2022-09-13T13:45:59.993Z,24.38
2022-09-13T13:48:38.334Z,24.39
2022-09-13T13:51:22.841Z,24.39
2022-09-13T13:53:53.469Z,24.40
2022-09-13T13:56:36.085Z,24.40
2022-09-13T13:59:10.391Z,24.40
2022-09-13T14:01:40.780Z,24.41
2022-09-13T14:04:43.735Z,24.41
2022-09-13T14:07:20.566Z,24.41
2022-09-13T14:09:53.655Z,24.40
2022-09-13T14:12:27.287Z,24.42
2022-09-13T14:15:17.915Z,24.42
2022-09-13T14:18:03.819Z,24.41
2022-09-13T14:20:31.793Z,24.42
2022-09-13T14:23:18.549Z,24.42
2022-09-13T14:25:46.590Z,24.41
2022-09-13T14:28:15.658Z,24.42
2022-09-13T14:30:44.098Z,24.41
2022-09-13T14:33:22.957Z,24.41
2022-09-13T14:36:04.529Z,24.41
2022-09-13T14:38:35.519Z,24.40
2022-09-13T14:41:11.456Z,24.40
2022-09-13T14:43:39.344Z,24.40
2022-09-13T14:46:08.518Z,24.40
2022-09-13T14:48:40.709Z,24.40
2022-09-13T14:51:13.360Z,24.40
2022-09-13T14:53:41.275Z,24.40
2022-09-13T14:56:10.134Z,24.41
2022-09-13T14:58:41.494Z,24.41
2022-09-13T15:01:10.581Z,24.40
2022-09-13T15:03:41.886Z,24.41
2022-09-13T15:06:21.299Z,24.40
2022-09-13T15:08:49.337Z,24.40
2022-09-13T15:11:28.526Z,24.41
2022-09-13T15:14:04.264Z,24.40
2022-09-13T15:16:32.802Z,24.41
2022-09-13T15:19:31.887Z,24.41
2022-09-13T15:22:07.365Z,24.40
2022-09-13T15:24:35.531Z,24.40
2022-09-13T15:27:05.007Z,24.39
2022-09-13T15:29:35.016Z,24.39
2022-09-13T15:32:03.224Z,24.38
2022-09-13T15:34:32.894Z,24.39
2022-09-13T15:37:09.726Z,24.38
2022-09-13T15:39:48.408Z,24.38
2022-09-13T15:42:16.936Z,24.38
2022-09-13T15:44:44.923Z,24.38
2022-09-13T15:47:15.320Z,24.38
2022-09-13T15:49:49.543Z,24.38
2022-09-13T15:52:17.643Z,24.36
2022-09-13T15:54:47.521Z,24.35
2022-09-13T15:57:18.464Z,24.38
2022-09-13T15:59:46.424Z,24.35
2022-09-13T16:02:21.053Z,24.35
2022-09-13T16:04:50.649Z,24.34
2022-09-13T16:07:18.647Z,24.35
2022-09-13T16:09:46.664Z,24.35
2022-09-13T16:12:14.632Z,24.34
2022-09-13T16:14:42.951Z,24.34
2022-09-13T16:17:13.547Z,24.34
2022-09-13T16:19:41.439Z,24.33
2022-09-13T16:22:12.762Z,24.33
2022-09-13T16:24:41.086Z,24.33
2022-09-13T16:27:09.001Z,24.33
2022-09-13T16:29:36.901Z,24.32
2022-09-13T16:32:05.165Z,24.32
2022-09-13T16:34:33.128Z,24.30
2022-09-13T16:37:01.096Z,24.31
2022-09-13T16:39:30.396Z,24.31
2022-09-13T16:41:58.295Z,24.31
2022-09-13T16:44:26.400Z,24.31
2022-09-13T16:46:54.445Z,24.31
2022-09-13T16:49:22.393Z,24.31
2022-09-13T16:51:50.371Z,24.31
2022-09-13T16:54:18.470Z,24.31
2022-09-13T16:56:47.770Z,24.31
2022-09-13T16:59:16.078Z,24.31
2022-09-13T17:01:44.148Z,24.29
2022-09-13T17:04:12.412Z,24.31
2022-09-13T17:06:40.590Z,24.31
2022-09-13T17:09:08.726Z,24.30
2022-09-13T17:11:37.592Z,24.31
2022-09-13T17:14:11.024Z,24.31
2022-09-13T17:16:40.190Z,24.31
2022-09-13T17:19:12.503Z,24.31
2022-09-13T17:21:40.430Z,24.30
2022-09-13T17:24:13.236Z,24.31
2022-09-13T17:26:42.531Z,24.30
2022-09-13T17:29:12.352Z,24.31
2022-09-13T17:31:40.735Z,24.29
2022-09-13T17:34:08.729Z,24.29
2022-09-13T17:36:36.723Z,24.29
2022-09-13T17:39:05.591Z,24.28
2022-09-13T17:41:33.485Z,24.28
2022-09-13T17:44:01.471Z,24.27
2022-09-13T17:46:31.688Z,24.27
2022-09-13T17:49:00.625Z,24.27
2022-09-13T17:51:29.332Z,24.26
2022-09-13T17:53:58.787Z,24.25
2022-09-13T17:56:29.739Z,24.24
2022-09-13T17:58:57.757Z,24.24
2022-09-13T18:01:25.831Z,24.24
2022-09-13T18:03:56.549Z,24.24
2022-09-13T18:06:24.468Z,24.24
2022-09-13T18:08:52.894Z,24.25
2022-09-13T18:11:22.604Z,24.25
2022-09-13T18:13:50.678Z,24.24
2022-09-13T18:16:21.529Z,24.25
2022-09-13T18:18:50.041Z,24.25
2022-09-13T18:21:19.660Z,24.25
2022-09-13T18:23:47.830Z,24.25
2022-09-13T18:26:16.959Z,24.25
2022-09-13T18:28:45.097Z,24.25
2022-09-13T18:31:14.393Z,24.24
2022-09-13T18:33:42.647Z,24.24
2022-09-13T18:36:11.625Z,24.24
2022-09-13T18:38:41.946Z,24.24
2022-09-13T18:41:10.777Z,24.22
2022-09-13T18:43:39.711Z,24.21
2022-09-13T18:46:09.286Z,24.21
2022-09-13T18:48:39.023Z,24.20
2022-09-13T18:51:07.455Z,24.20
2022-09-13T18:53:35.774Z,24.19
2022-09-13T18:56:06.232Z,24.19
2022-09-13T18:58:35.063Z,24.20
2022-09-13T19:01:04.304Z,24.19
2022-09-13T19:03:32.993Z,24.19
2022-09-13T19:06:16.106Z,24.18
2022-09-13T19:08:44.232Z,24.17
2022-09-13T19:11:35.224Z,24.18
2022-09-13T19:14:01.632Z,24.18
2022-09-13T19:16:29.713Z,24.18
2022-09-13T19:18:57.729Z,24.19
2022-09-13T19:21:27.454Z,24.18
2022-09-13T19:23:59.976Z,24.18
2022-09-13T19:26:32.056Z,24.17
2022-09-13T19:29:04.542Z,24.18
2022-09-13T19:31:32.898Z,24.17
2022-09-13T19:34:02.327Z,24.18
2022-09-13T19:36:34.332Z,24.16
2022-09-13T19:39:02.554Z,24.16
2022-09-13T19:41:31.962Z,24.15
2022-09-13T19:44:00.792Z,24.15
2022-09-13T19:46:31.593Z,24.14
2022-09-13T19:49:00.282Z,24.15
2022-09-13T19:51:28.851Z,24.12
2022-09-13T19:53:57.993Z,24.13
2022-09-13T19:56:27.305Z,24.13
2022-09-13T19:58:56.749Z,24.12
2022-09-13T20:01:25.627Z,24.11
2022-09-13T20:03:56.934Z,24.11
2022-09-13T20:06:25.184Z,24.11
2022-09-13T20:08:53.341Z,24.11
2022-09-13T20:11:21.532Z,24.10
2022-09-13T20:13:49.476Z,24.10
2022-09-13T20:16:20.529Z,24.10
2022-09-13T20:18:48.708Z,24.10
2022-09-13T20:21:17.631Z,24.08
2022-09-13T20:23:45.803Z,24.10
2022-09-13T20:26:19.252Z,24.11
2022-09-13T20:28:48.301Z,24.11
2022-09-13T20:31:16.425Z,24.10
2022-09-13T20:33:45.940Z,24.12
2022-09-13T20:36:15.448Z,24.11
2022-09-13T20:38:45.731Z,24.11
2022-09-13T20:41:14.634Z,24.09
2022-09-13T20:43:42.677Z,24.09
2022-09-13T20:46:12.685Z,24.08
2022-09-13T20:48:41.081Z,24.07
2022-09-13T20:51:12.666Z,24.07
2022-09-13T20:53:40.648Z,24.07
2022-09-13T20:56:09.553Z,24.06
2022-09-13T20:58:37.552Z,24.04
2022-09-13T21:01:06.634Z,24.05
2022-09-13T21:03:36.203Z,24.05
2022-09-13T21:06:04.248Z,24.04
2022-09-13T21:08:41.681Z,24.03
2022-09-13T21:11:12.754Z,24.03
2022-09-13T21:13:42.666Z,24.02
2022-09-13T21:16:12.424Z,24.03
2022-09-13T21:18:41.145Z,24.03
2022-09-13T21:21:09.475Z,24.02
2022-09-13T21:23:40.314Z,24.02
2022-09-13T21:26:10.190Z,24.03
2022-09-13T21:28:38.317Z,24.03
2022-09-13T21:31:08.055Z,24.03
2022-09-13T21:33:36.144Z,24.03
2022-09-13T21:36:05.176Z,24.02
2022-09-13T21:38:33.767Z,24.03
2022-09-13T21:41:04.780Z,24.03
2022-09-13T21:43:32.964Z,24.02
2022-09-13T21:46:05.164Z,24.02
2022-09-13T21:48:33.300Z,24.01
2022-09-13T21:51:08.052Z,24.01
2022-09-13T21:53:36.964Z,24.00
2022-09-13T21:56:07.731Z,24.00
2022-09-13T21:58:36.133Z,23.99
2022-09-13T22:01:05.581Z,24.00
2022-09-13T22:03:35.406Z,23.99
2022-09-13T22:06:03.335Z,23.98
2022-09-13T22:08:32.509Z,23.97
2022-09-13T22:11:06.734Z,23.97
2022-09-13T22:13:35.010Z,23.97
2022-09-13T22:16:07.324Z,23.97
2022-09-13T22:18:35.293Z,23.97
2022-09-13T22:21:06.776Z,23.96
2022-09-13T22:23:34.875Z,23.96
2022-09-13T22:26:07.217Z,23.96
2022-09-13T22:28:35.452Z,23.97
2022-09-13T22:31:07.268Z,23.97
2022-09-13T22:33:36.632Z,23.97
2022-09-13T22:36:06.822Z,23.97
2022-09-13T22:38:35.263Z,23.96
2022-09-13T22:41:04.380Z,23.97
2022-09-13T22:43:34.037Z,23.96
2022-09-13T22:46:03.506Z,23.97
2022-09-13T22:48:31.673Z,23.96
2022-09-13T22:50:59.578Z,23.96
2022-09-13T22:53:27.961Z,23.95
2022-09-13T22:55:56.876Z,23.95
2022-09-13T22:58:24.804Z,23.94
2022-09-13T23:00:54.148Z,23.94
2022-09-13T23:03:22.095Z,23.92
2022-09-13T23:05:53.194Z,23.92
2022-09-13T23:08:21.234Z,23.93
2022-09-13T23:10:49.150Z,23.91
2022-09-13T23:13:17.112Z,23.91
2022-09-13T23:15:45.036Z,23.91
2022-09-13T23:18:14.307Z,23.90
2022-09-13T23:20:42.869Z,23.90
2022-09-13T23:23:11.512Z,23.90
2022-09-13T23:25:39.422Z,23.90
2022-09-13T23:28:07.354Z,23.90
2022-09-13T23:30:35.311Z,23.89
2022-09-13T23:33:03.231Z,23.90
2022-09-13T23:35:32.482Z,23.90
2022-09-13T23:38:00.419Z,23.91
2022-09-13T23:40:28.514Z,23.90
2022-09-13T23:42:56.508Z,23.91
2022-09-13T23:45:24.661Z,23.91
2022-09-13T23:47:52.630Z,23.91
2022-09-13T23:50:20.534Z,23.91
2022-09-13T23:52:49.893Z,23.90
2022-09-13T23:55:18.150Z,23.90
2022-09-13T23:57:46.085Z,23.89
